RYR6958 EIKY-EGCC
Flight info
| Callsign | RYR6958 |
|---|---|
| Flight time | 0h 57m |
| Altitude | 37000 |
| Route | SHA3D SHA DCT BOFUM Q37 MALUD |
| Aircraft | B38M/M-SDE1FGHILORVWXY/HB1 |
Departure
| Time | 2026-04-24 15:48 |
|---|---|
| Airport | Kerry Airport (EIKY) |
Arrival
| Time | 2026-04-24 16:45 |
|---|---|
| Airport | Manchester Airport (EGCC) |
| Time | Latitude | Longitude | Altitude | Speed | Heading |
|---|---|---|---|---|---|
| 2026-04-24 15:28 | 52.18120 | -9.53586 | 93 ft | 0 kts | 347° |
| 2026-04-24 15:43 | 52.18123 | -9.53584 | 93 ft | 0 kts | 19° |
| 2026-04-24 15:44 | 52.18124 | -9.53581 | 95 ft | 0 kts | 38° |
| 2026-04-24 15:44 | 52.18126 | -9.53574 | 93 ft | 1 kts | 67° |
| 2026-04-24 15:44 | 52.18122 | -9.53560 | 93 ft | 2 kts | 129° |
| 2026-04-24 15:44 | 52.18104 | -9.53552 | 93 ft | 3 kts | 191° |
| 2026-04-24 15:45 | 52.18078 | -9.53574 | 93 ft | 6 kts | 206° |
| 2026-04-24 15:45 | 52.18031 | -9.53602 | 95 ft | 9 kts | 209° |
| 2026-04-24 15:45 | 52.17965 | -9.53605 | 93 ft | 11 kts | 162° |
| 2026-04-24 15:45 | 52.17884 | -9.53561 | 94 ft | 9 kts | 161° |
| 2026-04-24 15:46 | 52.17838 | -9.53591 | 96 ft | 8 kts | 244° |
| 2026-04-24 15:46 | 52.17802 | -9.53673 | 95 ft | 9 kts | 233° |
| 2026-04-24 15:46 | 52.17799 | -9.53721 | 98 ft | 2 kts | 328° |
| 2026-04-24 15:46 | 52.17813 | -9.53709 | 94 ft | 3 kts | 57° |
| 2026-04-24 15:47 | 52.17825 | -9.53645 | 94 ft | 12 kts | 72° |
| 2026-04-24 15:47 | 52.17915 | -9.53212 | 94 ft | 80 kts | 71° |
| 2026-04-24 15:47 | 52.18175 | -9.51977 | 96 ft | 148 kts | 72° |
| 2026-04-24 15:47 | 52.18522 | -9.50302 | 641 ft | 162 kts | 76° |
| 2026-04-24 15:48 | 52.18876 | -9.48561 | 1560 ft | 155 kts | 76° |
| 2026-04-24 15:48 | 52.19232 | -9.46841 | 2332 ft | 171 kts | 76° |
| 2026-04-24 15:48 | 52.19632 | -9.44890 | 3043 ft | 192 kts | 76° |
| 2026-04-24 15:48 | 52.20087 | -9.42694 | 3320 ft | 214 kts | 76° |
| 2026-04-24 15:49 | 52.20582 | -9.40300 | 3386 ft | 231 kts | 76° |
| 2026-04-24 15:49 | 52.21132 | -9.37740 | 3426 ft | 244 kts | 70° |
| 2026-04-24 15:49 | 52.22175 | -9.35478 | 3572 ft | 258 kts | 46° |
| 2026-04-24 15:49 | 52.23679 | -9.33788 | 3723 ft | 266 kts | 35° |
| 2026-04-24 15:50 | 52.25288 | -9.32237 | 4084 ft | 269 kts | 35° |
| 2026-04-24 15:50 | 52.26898 | -9.30712 | 5295 ft | 269 kts | 35° |
| 2026-04-24 15:50 | 52.28527 | -9.29181 | 6288 ft | 278 kts | 34° |
| 2026-04-24 15:50 | 52.30231 | -9.27594 | 7285 ft | 284 kts | 34° |
| 2026-04-24 15:51 | 52.31993 | -9.25965 | 8324 ft | 290 kts | 34° |
| 2026-04-24 15:51 | 52.33763 | -9.24328 | 9318 ft | 295 kts | 33° |
| 2026-04-24 15:51 | 52.35543 | -9.22680 | 10265 ft | 301 kts | 33° |
| 2026-04-24 15:51 | 52.37407 | -9.20951 | 10971 ft | 317 kts | 33° |
| 2026-04-24 15:52 | 52.38723 | -9.19732 | 11448 ft | 325 kts | 33° |
| 2026-04-24 15:52 | 52.41373 | -9.17276 | 12560 ft | 334 kts | 33° |
| 2026-04-24 15:52 | 52.43404 | -9.15390 | 13494 ft | 338 kts | 32° |
| 2026-04-24 15:52 | 52.45461 | -9.13477 | 14406 ft | 341 kts | 33° |
| 2026-04-24 15:53 | 52.47538 | -9.11544 | 15290 ft | 345 kts | 32° |
| 2026-04-24 15:53 | 52.48926 | -9.10252 | 15870 ft | 348 kts | 32° |
| 2026-04-24 15:53 | 52.51046 | -9.08275 | 16713 ft | 351 kts | 32° |
| 2026-04-24 15:53 | 52.53184 | -9.06279 | 17493 ft | 356 kts | 32° |
| 2026-04-24 15:54 | 52.55346 | -9.04258 | 18280 ft | 359 kts | 32° |
| 2026-04-24 15:54 | 52.57527 | -9.02217 | 19009 ft | 363 kts | 32° |
| 2026-04-24 15:54 | 52.59738 | -9.00147 | 19684 ft | 368 kts | 32° |
| 2026-04-24 15:54 | 52.61972 | -8.98052 | 20359 ft | 372 kts | 32° |
| 2026-04-24 15:55 | 52.64229 | -8.95932 | 21008 ft | 376 kts | 32° |
| 2026-04-24 15:55 | 52.66514 | -8.93785 | 21609 ft | 380 kts | 32° |
| 2026-04-24 15:55 | 52.68823 | -8.91612 | 22198 ft | 384 kts | 32° |
| 2026-04-24 15:55 | 52.71018 | -8.89106 | 22782 ft | 384 kts | 47° |
| 2026-04-24 15:56 | 52.72624 | -8.85626 | 23348 ft | 382 kts | 65° |
| 2026-04-24 15:56 | 52.73765 | -8.81649 | 23838 ft | 386 kts | 68° |
| 2026-04-24 15:56 | 52.74879 | -8.77582 | 24363 ft | 390 kts | 69° |
| 2026-04-24 15:56 | 52.75962 | -8.73518 | 24887 ft | 393 kts | 69° |
| 2026-04-24 15:57 | 52.77055 | -8.69351 | 25354 ft | 398 kts | 69° |
| 2026-04-24 15:57 | 52.78154 | -8.65112 | 25849 ft | 402 kts | 69° |
| 2026-04-24 15:57 | 52.79256 | -8.60841 | 26312 ft | 405 kts | 69° |
| 2026-04-24 15:57 | 52.80364 | -8.56526 | 26764 ft | 409 kts | 69° |
| 2026-04-24 15:58 | 52.81480 | -8.52171 | 27206 ft | 413 kts | 69° |
| 2026-04-24 15:58 | 52.82602 | -8.47781 | 27697 ft | 415 kts | 69° |
| 2026-04-24 15:58 | 52.83723 | -8.43389 | 28233 ft | 415 kts | 69° |
| 2026-04-24 15:58 | 52.84844 | -8.38992 | 28768 ft | 415 kts | 69° |
| 2026-04-24 15:59 | 52.85963 | -8.34588 | 29151 ft | 418 kts | 69° |
| 2026-04-24 15:59 | 52.87087 | -8.30153 | 29282 ft | 416 kts | 69° |
| 2026-04-24 15:59 | 52.89304 | -8.21389 | 29286 ft | 414 kts | 69° |
| 2026-04-24 16:00 | 52.91527 | -8.12567 | 29281 ft | 414 kts | 69° |
| 2026-04-24 16:00 | 52.93737 | -8.03759 | 29286 ft | 414 kts | 70° |
| 2026-04-24 16:01 | 52.95941 | -7.94940 | 29250 ft | 414 kts | 69° |
| 2026-04-24 16:01 | 52.98144 | -7.86094 | 29193 ft | 415 kts | 69° |
| 2026-04-24 16:02 | 53.00328 | -7.77285 | 29190 ft | 414 kts | 69° |
| 2026-04-24 16:02 | 53.02511 | -7.68448 | 29199 ft | 414 kts | 69° |
| 2026-04-24 16:03 | 53.04688 | -7.59598 | 29192 ft | 413 kts | 69° |
| 2026-04-24 16:03 | 53.06854 | -7.50758 | 29198 ft | 413 kts | 69° |
| 2026-04-24 16:04 | 53.09013 | -7.41906 | 29214 ft | 413 kts | 69° |
| 2026-04-24 16:04 | 53.11168 | -7.33038 | 29216 ft | 413 kts | 69° |
| 2026-04-24 16:05 | 53.14383 | -7.19743 | 29224 ft | 412 kts | 69° |
| 2026-04-24 16:06 | 53.17579 | -7.06442 | 29222 ft | 413 kts | 69° |
| 2026-04-24 16:07 | 53.20759 | -6.93131 | 29236 ft | 411 kts | 69° |
| 2026-04-24 16:07 | 53.23908 | -6.79865 | 29233 ft | 411 kts | 69° |
| 2026-04-24 16:08 | 53.27048 | -6.66554 | 29238 ft | 411 kts | 69° |
| 2026-04-24 16:09 | 53.30174 | -6.53222 | 29238 ft | 410 kts | 69° |
| 2026-04-24 16:09 | 53.32242 | -6.44356 | 29240 ft | 409 kts | 69° |
| 2026-04-24 16:11 | 53.37371 | -6.22205 | 29257 ft | 407 kts | 69° |
| 2026-04-24 16:11 | 53.39404 | -6.13362 | 29257 ft | 406 kts | 69° |
| 2026-04-24 16:12 | 53.42435 | -6.00105 | 29256 ft | 405 kts | 69° |
| 2026-04-24 16:13 | 53.45431 | -5.86923 | 29266 ft | 404 kts | 69° |
| 2026-04-24 16:14 | 53.49418 | -5.69275 | 29262 ft | 404 kts | 69° |
| 2026-04-24 16:14 | 53.51859 | -5.55777 | 29274 ft | 405 kts | 84° |
| 2026-04-24 16:15 | 53.52224 | -5.41569 | 29257 ft | 406 kts | 87° |
| 2026-04-24 16:16 | 53.52587 | -5.27437 | 29257 ft | 405 kts | 87° |
| 2026-04-24 16:17 | 53.52439 | -5.03775 | 29247 ft | 406 kts | 92° |
| 2026-04-24 16:18 | 53.51902 | -4.85248 | 28509 ft | 387 kts | 92° |
| 2026-04-24 16:18 | 53.51750 | -4.80733 | 28019 ft | 387 kts | 92° |
| 2026-04-24 16:19 | 53.51450 | -4.71779 | 27255 ft | 381 kts | 92° |
| 2026-04-24 16:19 | 53.51299 | -4.67359 | 26865 ft | 377 kts | 92° |
| 2026-04-24 16:20 | 53.50997 | -4.58615 | 26077 ft | 372 kts | 92° |
| 2026-04-24 16:20 | 53.50692 | -4.49987 | 25302 ft | 367 kts | 92° |
| 2026-04-24 16:20 | 53.50541 | -4.45770 | 24924 ft | 365 kts | 92° |
| 2026-04-24 16:21 | 53.50233 | -4.37321 | 24166 ft | 360 kts | 92° |
| 2026-04-24 16:21 | 53.50079 | -4.33136 | 23789 ft | 357 kts | 92° |
| 2026-04-24 16:21 | 53.49924 | -4.28990 | 23421 ft | 355 kts | 93° |
| 2026-04-24 16:22 | 53.49769 | -4.24862 | 23052 ft | 353 kts | 93° |
| 2026-04-24 16:22 | 53.49457 | -4.16692 | 22320 ft | 348 kts | 93° |
| 2026-04-24 16:22 | 53.49301 | -4.12642 | 21962 ft | 345 kts | 93° |
| 2026-04-24 16:23 | 53.49145 | -4.08636 | 21616 ft | 343 kts | 93° |
| 2026-04-24 16:23 | 53.48989 | -4.04660 | 21255 ft | 340 kts | 93° |
| 2026-04-24 16:23 | 53.48834 | -4.00720 | 20903 ft | 337 kts | 93° |
| 2026-04-24 16:24 | 53.48030 | -3.93065 | 20153 ft | 333 kts | 110° |
| 2026-04-24 16:24 | 53.47268 | -3.89415 | 19842 ft | 329 kts | 109° |
| 2026-04-24 16:24 | 53.46533 | -3.85841 | 19533 ft | 326 kts | 109° |
| 2026-04-24 16:24 | 53.45791 | -3.82255 | 19194 ft | 324 kts | 109° |
| 2026-04-24 16:25 | 53.45056 | -3.78700 | 18860 ft | 321 kts | 109° |
| 2026-04-24 16:25 | 53.44324 | -3.75176 | 18528 ft | 319 kts | 109° |
| 2026-04-24 16:25 | 53.43597 | -3.71676 | 18201 ft | 317 kts | 110° |
| 2026-04-24 16:26 | 53.42155 | -3.64752 | 17541 ft | 312 kts | 110° |
| 2026-04-24 16:26 | 53.41463 | -3.61321 | 17196 ft | 311 kts | 105° |
| 2026-04-24 16:26 | 53.41046 | -3.54107 | 16435 ft | 310 kts | 94° |
| 2026-04-24 16:27 | 53.40887 | -3.50508 | 16071 ft | 309 kts | 94° |
| 2026-04-24 16:27 | 53.40728 | -3.46917 | 15699 ft | 309 kts | 94° |
| 2026-04-24 16:27 | 53.40568 | -3.43333 | 15322 ft | 308 kts | 94° |
| 2026-04-24 16:27 | 53.40408 | -3.39764 | 14949 ft | 307 kts | 95° |
| 2026-04-24 16:28 | 53.40247 | -3.36196 | 14578 ft | 307 kts | 95° |
| 2026-04-24 16:28 | 53.40085 | -3.32635 | 14201 ft | 306 kts | 94° |
| 2026-04-24 16:28 | 53.39758 | -3.25522 | 13441 ft | 305 kts | 94° |
| 2026-04-24 16:29 | 53.39594 | -3.21982 | 13084 ft | 305 kts | 94° |
| 2026-04-24 16:29 | 53.39429 | -3.18445 | 12707 ft | 304 kts | 94° |
| 2026-04-24 16:29 | 53.39900 | -3.11539 | 11899 ft | 304 kts | 61° |
| 2026-04-24 16:30 | 53.41993 | -3.05441 | 11213 ft | 300 kts | 60° |
| 2026-04-24 16:30 | 53.43036 | -3.02413 | 10851 ft | 300 kts | 59° |
| 2026-04-24 16:30 | 53.44079 | -2.99393 | 10485 ft | 299 kts | 60° |
| 2026-04-24 16:31 | 53.45121 | -2.96376 | 10116 ft | 298 kts | 60° |
| 2026-04-24 16:31 | 53.46160 | -2.93371 | 9754 ft | 298 kts | 60° |
| 2026-04-24 16:31 | 53.47196 | -2.90367 | 9389 ft | 297 kts | 60° |
| 2026-04-24 16:31 | 53.48231 | -2.87368 | 9032 ft | 295 kts | 60° |
| 2026-04-24 16:32 | 53.48906 | -2.85409 | 8791 ft | 291 kts | 60° |
| 2026-04-24 16:32 | 53.50245 | -2.81520 | 8303 ft | 284 kts | 60° |
| 2026-04-24 16:32 | 53.51223 | -2.78675 | 7972 ft | 278 kts | 60° |
| 2026-04-24 16:32 | 53.52181 | -2.75883 | 7634 ft | 273 kts | 60° |
| 2026-04-24 16:33 | 53.53116 | -2.73146 | 7318 ft | 267 kts | 62° |
| 2026-04-24 16:33 | 53.53652 | -2.70244 | 7098 ft | 256 kts | 83° |
| 2026-04-24 16:33 | 53.53831 | -2.67309 | 6975 ft | 251 kts | 85° |
| 2026-04-24 16:33 | 53.53994 | -2.64445 | 6813 ft | 241 kts | 84° |
| 2026-04-24 16:34 | 53.54148 | -2.61686 | 6645 ft | 232 kts | 85° |
| 2026-04-24 16:34 | 53.54295 | -2.59031 | 6367 ft | 226 kts | 84° |
| 2026-04-24 16:34 | 53.54439 | -2.56408 | 6043 ft | 223 kts | 85° |
| 2026-04-24 16:34 | 53.54581 | -2.53822 | 5719 ft | 221 kts | 85° |
| 2026-04-24 16:35 | 53.54723 | -2.51259 | 5385 ft | 218 kts | 85° |
| 2026-04-24 16:35 | 53.54864 | -2.48739 | 5073 ft | 216 kts | 85° |
| 2026-04-24 16:35 | 53.55006 | -2.46226 | 4754 ft | 214 kts | 85° |
| 2026-04-24 16:35 | 53.55149 | -2.43736 | 4471 ft | 213 kts | 85° |
| 2026-04-24 16:36 | 53.55290 | -2.41265 | 4272 ft | 212 kts | 85° |
| 2026-04-24 16:36 | 53.55430 | -2.38826 | 4067 ft | 213 kts | 85° |
| 2026-04-24 16:36 | 53.55577 | -2.36347 | 3867 ft | 213 kts | 85° |
| 2026-04-24 16:36 | 53.55725 | -2.33876 | 3671 ft | 212 kts | 85° |
| 2026-04-24 16:37 | 53.55871 | -2.31407 | 3449 ft | 213 kts | 85° |
| 2026-04-24 16:37 | 53.55966 | -2.29779 | 3323 ft | 210 kts | 85° |
| 2026-04-24 16:37 | 53.56111 | -2.27361 | 3187 ft | 204 kts | 85° |
| 2026-04-24 16:37 | 53.56250 | -2.25052 | 3097 ft | 192 kts | 85° |
| 2026-04-24 16:38 | 53.56309 | -2.22847 | 2924 ft | 187 kts | 102° |
| 2026-04-24 16:38 | 53.55807 | -2.20875 | 2848 ft | 183 kts | 120° |
| 2026-04-24 16:38 | 53.55176 | -2.18993 | 2944 ft | 185 kts | 120° |
| 2026-04-24 16:38 | 53.54538 | -2.17100 | 3015 ft | 186 kts | 120° |
| 2026-04-24 16:39 | 53.53901 | -2.15209 | 3028 ft | 186 kts | 120° |
| 2026-04-24 16:39 | 53.53272 | -2.13346 | 3008 ft | 185 kts | 120° |
| 2026-04-24 16:39 | 53.52622 | -2.11450 | 2987 ft | 181 kts | 124° |
| 2026-04-24 16:39 | 53.51850 | -2.09922 | 2969 ft | 170 kts | 137° |
| 2026-04-24 16:40 | 53.50879 | -2.08717 | 2968 ft | 173 kts | 148° |
| 2026-04-24 16:40 | 53.49861 | -2.07667 | 2967 ft | 174 kts | 148° |
| 2026-04-24 16:40 | 53.48828 | -2.06597 | 2940 ft | 175 kts | 148° |
| 2026-04-24 16:40 | 53.47693 | -2.06010 | 2854 ft | 173 kts | 187° |
| 2026-04-24 16:41 | 53.46543 | -2.06603 | 2840 ft | 175 kts | 200° |
| 2026-04-24 16:41 | 53.45406 | -2.07367 | 2793 ft | 176 kts | 206° |
| 2026-04-24 16:41 | 53.44444 | -2.08621 | 2676 ft | 176 kts | 226° |
| 2026-04-24 16:41 | 53.43675 | -2.10205 | 2519 ft | 175 kts | 231° |
| 2026-04-24 16:42 | 53.42929 | -2.11814 | 2321 ft | 173 kts | 230° |
| 2026-04-24 16:42 | 53.42204 | -2.13326 | 2142 ft | 156 kts | 230° |
| 2026-04-24 16:42 | 53.41562 | -2.14664 | 2002 ft | 144 kts | 230° |
| 2026-04-24 16:42 | 53.40947 | -2.15942 | 1791 ft | 139 kts | 230° |
| 2026-04-24 16:43 | 53.40343 | -2.17197 | 1582 ft | 138 kts | 230° |
| 2026-04-24 16:43 | 53.39743 | -2.18442 | 1411 ft | 137 kts | 230° |
| 2026-04-24 16:43 | 53.39154 | -2.19663 | 1229 ft | 136 kts | 230° |
| 2026-04-24 16:43 | 53.38552 | -2.20913 | 1044 ft | 136 kts | 230° |
| 2026-04-24 16:44 | 53.37959 | -2.22145 | 873 ft | 136 kts | 230° |
| 2026-04-24 16:44 | 53.37365 | -2.23376 | 687 ft | 136 kts | 231° |
| 2026-04-24 16:44 | 53.36772 | -2.24608 | 490 ft | 135 kts | 230° |
| 2026-04-24 16:44 | 53.36195 | -2.25798 | 318 ft | 134 kts | 230° |
| 2026-04-24 16:45 | 53.35650 | -2.26925 | 267 ft | 99 kts | 231° |
| 2026-04-24 16:45 | 53.35365 | -2.27514 | 260 ft | 35 kts | 232° |
| 2026-04-24 16:45 | 53.35262 | -2.27849 | 250 ft | 26 kts | 256° |
| 2026-04-24 16:45 | 53.35236 | -2.28105 | 239 ft | 16 kts | 261° |
| 2026-04-24 16:46 | 53.35236 | -2.28195 | 237 ft | 1 kts | 294° |
| 2026-04-24 16:46 | 53.35250 | -2.28216 | 237 ft | 5 kts | 331° |
| 2026-04-24 16:46 | 53.35291 | -2.28186 | 239 ft | 7 kts | 43° |
| 2026-04-24 16:46 | 53.35324 | -2.28134 | 242 ft | 6 kts | 44° |
| 2026-04-24 16:47 | 53.35353 | -2.28086 | 243 ft | 6 kts | 44° |
| 2026-04-24 16:47 | 53.35394 | -2.28020 | 245 ft | 11 kts | 44° |
| 2026-04-24 16:47 | 53.35463 | -2.27909 | 248 ft | 15 kts | 44° |
| 2026-04-24 16:47 | 53.35538 | -2.27787 | 250 ft | 14 kts | 44° |
| 2026-04-24 16:48 | 53.35596 | -2.27693 | 250 ft | 9 kts | 44° |
| 2026-04-24 16:48 | 53.35602 | -2.27684 | 250 ft | 0 kts | 44° |
| 2026-04-24 16:49 | 53.35605 | -2.27680 | 250 ft | 2 kts | 44° |
| 2026-04-24 16:49 | 53.35624 | -2.27649 | 250 ft | 6 kts | 44° |
| 2026-04-24 16:49 | 53.35664 | -2.27578 | 250 ft | 11 kts | 50° |
| 2026-04-24 16:49 | 53.35733 | -2.27434 | 250 ft | 20 kts | 51° |
| 2026-04-24 16:50 | 53.35793 | -2.27312 | 250 ft | 15 kts | 51° |
| 2026-04-24 16:50 | 53.35863 | -2.27220 | 250 ft | 8 kts | 355° |
| 2026-04-24 16:50 | 53.35898 | -2.27177 | 250 ft | 6 kts | 63° |
| 2026-04-24 16:50 | 53.35910 | -2.27135 | 250 ft | 2 kts | 65° |
| 2026-04-24 16:51 | 53.35911 | -2.27130 | 250 ft | 0 kts | 65° |